Terminal Aerodrome Forecast
Issued by NWS

Home | Current Version | Previous Version | Text Only | Print | Product List | Glossary On
Versions: 1 2 3 4 5 6 7 8 9 10 11 12
000
FTUS44 KCRP 201700
TAFLRD
TAF
KLRD 201733Z 2018/2118 15018G25KT P6SM SCT070
     FM210100 14019G26KT P6SM SKC
     FM210700 14013KT P6SM SCT015
      TEMPO 2111/2114 BKN015
     FM211500 16015KT P6SM SCT040=

USA.gov is the U.S. government's official web portal to all federal, state and local government web resources and services.